Time;durP1;ratioP1;P1;durP2;ratioP2;P2;SDS_P1;SDS_P2;PMS_P1;PMS_P2;Temp;Humidity;BMP_temperature;BMP_pressure;BME280_temperature;BME280_humidity;BME280_pressure;Samples;Min_cycle;Max_cycle;Signal;HPM_P1;HPM_P2
2022/07/15 00:00:46;;;;;;;8.52;2.78;;;;;;;;;;4980594;28;20506;-69
2022/07/15 00:03:12;;;;;;;6.97;2.30;;;;;;;;;;4985726;28;20089;-70
2022/07/15 00:05:38;;;;;;;5.07;2.28;;;;;;;;;;4990660;28;20030;-70
2022/07/15 00:08:04;;;;;;;7.22;2.25;;;;;;;;;;4990230;28;20458;-70
2022/07/15 00:10:30;;;;;;;5.25;2.22;;;;;;;;;;4990327;28;20022;-69
2022/07/15 00:12:58;;;;;;;8.65;2.00;;;;;;;;;;4990646;28;20061;-69
2022/07/15 00:15:26;;;;;;;6.25;1.95;;;;;;;;;;4990158;28;20061;-69
2022/07/15 00:17:53;;;;;;;8.90;2.22;;;;;;;;;;4990074;28;20038;-69
2022/07/15 00:20:20;;;;;;;3.45;1.75;;;;;;;;;;4990404;28;20053;-69
2022/07/15 00:22:47;;;;;;;4.90;2.13;;;;;;;;;;4991160;28;20030;-70
2022/07/15 00:25:14;;;;;;;3.63;1.80;;;;;;;;;;4993591;28;20112;-70
2022/07/15 00:28:00;;;;;;;4.85;1.95;;;;;;;;;;4992686;28;20109;-71
2022/07/15 00:30:31;;;;;;;5.72;1.83;;;;;;;;;;4993762;28;20045;-69
2022/07/15 00:32:58;;;;;;;3.88;1.77;;;;;;;;;;4993780;28;20129;-71
2022/07/15 00:35:24;;;;;;;4.28;2.03;;;;;;;;;;4991965;28;20026;-70
2022/07/15 00:37:50;;;;;;;6.10;2.30;;;;;;;;;;4989491;28;20034;-70
2022/07/15 00:40:16;;;;;;;4.55;2.35;;;;;;;;;;4993619;28;20034;-71
2022/07/15 00:42:45;;;;;;;4.38;2.20;;;;;;;;;;4989969;28;20045;-70
2022/07/15 00:45:22;;;;;;;8.30;2.08;;;;;;;;;;4993263;28;20029;-71
2022/07/15 00:47:50;;;;;;;5.40;1.90;;;;;;;;;;4993230;28;20045;-70
2022/07/15 00:50:17;;;;;;;5.60;2.03;;;;;;;;;;4991978;28;20025;-72
2022/07/15 00:52:55;;;;;;;4.80;2.03;;;;;;;;;;4993034;28;20037;-70
2022/07/15 00:55:23;;;;;;;4.90;2.00;;;;;;;;;;4993292;28;20049;-76
2022/07/15 00:57:51;;;;;;;4.35;1.90;;;;;;;;;;4986117;28;20501;-72
2022/07/15 01:00:17;;;;;;;6.43;2.15;;;;;;;;;;4986038;28;20034;-71
2022/07/15 01:02:49;;;;;;;5.72;2.40;;;;;;;;;;4993033;28;20035;-70
2022/07/15 01:05:18;;;;;;;5.57;2.20;;;;;;;;;;4978861;28;20040;-75
2022/07/15 01:07:45;;;;;;;6.65;2.85;;;;;;;;;;4985167;28;20038;-70
2022/07/15 01:10:11;;;;;;;5.25;2.40;;;;;;;;;;4991639;28;20034;-68
2022/07/15 01:12:40;;;;;;;7.45;2.20;;;;;;;;;;4991351;28;20025;-70
2022/07/15 01:15:07;;;;;;;4.30;1.85;;;;;;;;;;4992762;28;20097;-70
2022/07/15 01:17:33;;;;;;;4.40;2.03;;;;;;;;;;4975731;28;20032;-70
2022/07/15 01:19:59;;;;;;;6.82;2.28;;;;;;;;;;4991303;28;20374;-70
2022/07/15 01:22:30;;;;;;;6.75;2.53;;;;;;;;;;4991515;28;20022;-71
2022/07/15 01:24:56;;;;;;;9.05;2.22;;;;;;;;;;4991677;28;20117;-70
2022/07/15 01:27:27;;;;;;;10.40;3.30;;;;;;;;;;4991648;28;20033;-71
2022/07/15 01:29:54;;;;;;;6.72;2.15;;;;;;;;;;4991651;28;20150;-71
2022/07/15 01:32:22;;;;;;;4.07;2.13;;;;;;;;;;4991407;28;20030;-70
2022/07/15 01:34:48;;;;;;;3.15;1.75;;;;;;;;;;4992178;28;20045;-70
2022/07/15 01:37:16;;;;;;;7.63;1.90;;;;;;;;;;4975216;28;20030;-70
2022/07/15 01:39:47;;;;;;;6.38;2.20;;;;;;;;;;4988286;28;20044;-70
2022/07/15 01:42:13;;;;;;;7.65;1.98;;;;;;;;;;4990796;28;20125;-69
2022/07/15 01:44:39;;;;;;;6.78;2.15;;;;;;;;;;4990878;28;20117;-70
2022/07/15 01:47:05;;;;;;;5.63;2.28;;;;;;;;;;4990613;28;20034;-71
2022/07/15 01:49:33;;;;;;;9.60;3.10;;;;;;;;;;4990865;28;20062;-69
2022/07/15 01:52:01;;;;;;;10.98;3.10;;;;;;;;;;4985549;28;20077;-70
2022/07/15 01:54:29;;;;;;;14.23;2.85;;;;;;;;;;4989352;28;20101;-72
2022/07/15 01:56:59;;;;;;;7.47;2.10;;;;;;;;;;4990319;28;20057;-70
2022/07/15 01:59:27;;;;;;;7.25;2.22;;;;;;;;;;4990821;28;20033;-69
2022/07/15 02:01:57;;;;;;;5.30;2.10;;;;;;;;;;4990765;28;20060;-69
2022/07/15 02:04:23;;;;;;;6.35;2.28;;;;;;;;;;4990644;28;20117;-69
2022/07/15 02:06:50;;;;;;;6.57;2.40;;;;;;;;;;4991934;28;20077;-69
2022/07/15 02:09:18;;;;;;;5.90;3.03;;;;;;;;;;4990330;28;20126;-70
2022/07/15 02:11:46;;;;;;;8.30;2.65;;;;;;;;;;4990363;28;20117;-69
2022/07/15 02:14:13;;;;;;;8.73;4.00;;;;;;;;;;4986488;28;20045;-69
2022/07/15 02:16:40;;;;;;;10.88;4.05;;;;;;;;;;4989987;28;20018;-69
2022/07/15 02:19:10;;;;;;;9.23;3.45;;;;;;;;;;4990588;28;20508;-70
2022/07/15 02:21:36;;;;;;;11.30;3.53;;;;;;;;;;4990183;28;20038;-72
2022/07/15 02:24:03;;;;;;;7.68;3.30;;;;;;;;;;4989720;28;20485;-70
2022/07/15 02:26:29;;;;;;;12.32;3.20;;;;;;;;;;4990145;28;20041;-69
2022/07/15 02:28:56;;;;;;;7.80;3.60;;;;;;;;;;4989968;28;20026;-69
2022/07/15 02:31:26;;;;;;;9.38;3.50;;;;;;;;;;4990317;28;20177;-71
2022/07/15 02:33:52;;;;;;;10.85;3.65;;;;;;;;;;4980871;28;20109;-71
2022/07/15 02:36:18;;;;;;;7.78;2.90;;;;;;;;;;4989833;28;20497;-69
2022/07/15 02:38:45;;;;;;;15.00;4.75;;;;;;;;;;4990065;28;20030;-72
2022/07/15 02:41:13;;;;;;;18.50;3.90;;;;;;;;;;4986255;28;20125;-72
2022/07/15 02:43:41;;;;;;;9.95;3.22;;;;;;;;;;4989611;28;20022;-70
2022/07/15 02:46:09;;;;;;;12.02;3.70;;;;;;;;;;4988142;28;20041;-69
2022/07/15 02:48:36;;;;;;;14.13;3.97;;;;;;;;;;4989685;28;20117;-70
2022/07/15 02:51:03;;;;;;;13.20;3.10;;;;;;;;;;4984617;28;20037;-68
2022/07/15 02:53:29;;;;;;;14.25;4.13;;;;;;;;;;4989719;28;20109;-69
2022/07/15 02:55:58;;;;;;;12.95;3.97;;;;;;;;;;4986494;28;20121;-69
2022/07/15 02:58:26;;;;;;;7.00;2.60;;;;;;;;;;4989583;28;20056;-69
2022/07/15 03:00:52;;;;;;;5.97;2.95;;;;;;;;;;4988999;28;20042;-70
2022/07/15 03:03:19;;;;;;;12.93;3.40;;;;;;;;;;4990598;28;20088;-68
2022/07/15 03:05:46;;;;;;;7.88;3.10;;;;;;;;;;4989252;28;20034;-69
2022/07/15 03:08:11;;;;;;;7.88;3.45;;;;;;;;;;4977560;28;20043;-72
2022/07/15 03:10:39;;;;;;;10.95;3.80;;;;;;;;;;4986558;28;20045;-70
2022/07/15 03:13:05;;;;;;;12.88;3.97;;;;;;;;;;4990854;28;20104;-70
2022/07/15 03:15:31;;;;;;;16.17;4.28;;;;;;;;;;4989157;28;20439;-71
2022/07/15 03:17:57;;;;;;;13.15;3.83;;;;;;;;;;4989485;28;20038;-69
2022/07/15 03:20:25;;;;;;;13.18;3.58;;;;;;;;;;4989502;28;20036;-70
2022/07/15 03:22:51;;;;;;;8.48;3.45;;;;;;;;;;4990231;28;20046;-70
2022/07/15 03:25:17;;;;;;;16.80;4.40;;;;;;;;;;4990730;28;20125;-69
2022/07/15 03:27:43;;;;;;;15.25;4.82;;;;;;;;;;4986939;28;20023;-68
2022/07/15 03:30:11;;;;;;;12.02;3.80;;;;;;;;;;4988872;28;20030;-68
2022/07/15 03:32:37;;;;;;;13.60;4.22;;;;;;;;;;4990905;28;20030;-70
2022/07/15 03:35:04;;;;;;;8.68;3.53;;;;;;;;;;4990291;28;20026;-70
2022/07/15 03:37:34;;;;;;;7.05;4.00;;;;;;;;;;4988929;28;20038;-70
2022/07/15 03:40:00;;;;;;;25.35;5.30;;;;;;;;;;4990694;28;20062;-69
2022/07/15 03:42:26;;;;;;;13.00;4.53;;;;;;;;;;4989135;28;20018;-69
2022/07/15 03:44:52;;;;;;;10.52;3.45;;;;;;;;;;4990183;28;20085;-70
2022/07/15 03:47:18;;;;;;;11.38;3.50;;;;;;;;;;4989314;28;20397;-71
2022/07/15 03:49:44;;;;;;;15.95;3.63;;;;;;;;;;4990562;28;20110;-70
2022/07/15 03:52:10;;;;;;;8.85;3.47;;;;;;;;;;4989414;28;20037;-70
2022/07/15 03:54:36;;;;;;;8.05;3.25;;;;;;;;;;4988462;28;20092;-69
2022/07/15 03:57:02;;;;;;;11.30;3.58;;;;;;;;;;4989863;28;20062;-69
2022/07/15 03:59:28;;;;;;;7.88;3.05;;;;;;;;;;4992781;28;20046;-70
2022/07/15 04:01:55;;;;;;;10.80;3.53;;;;;;;;;;4994405;28;20034;-70
2022/07/15 04:04:20;;;;;;;9.05;3.38;;;;;;;;;;4995713;28;20417;-69
2022/07/15 04:06:46;;;;;;;10.73;3.90;;;;;;;;;;4992364;28;20035;-69
2022/07/15 04:09:12;;;;;;;14.27;3.17;;;;;;;;;;4992129;28;20038;-70
2022/07/15 04:11:42;;;;;;;8.65;2.70;;;;;;;;;;4993814;28;20085;-70
2022/07/15 04:14:12;;;;;;;15.75;4.15;;;;;;;;;;4992247;28;20365;-74
2022/07/15 04:16:41;;;;;;;13.27;3.53;;;;;;;;;;4992122;28;20138;-74
2022/07/15 04:19:19;;;;;;;12.40;3.55;;;;;;;;;;4992618;28;20432;-70
2022/07/15 04:21:46;;;;;;;14.07;4.00;;;;;;;;;;4992476;28;20401;-71
2022/07/15 04:24:12;;;;;;;11.95;2.90;;;;;;;;;;4992102;28;20062;-70
2022/07/15 04:26:38;;;;;;;7.50;2.78;;;;;;;;;;4992396;28;20520;-69
2022/07/15 04:29:04;;;;;;;6.60;2.75;;;;;;;;;;4991836;28;20026;-70
2022/07/15 04:31:30;;;;;;;11.05;3.90;;;;;;;;;;4993195;28;20495;-71
2022/07/15 04:34:06;;;;;;;8.43;3.05;;;;;;;;;;4990939;28;20026;-73
2022/07/15 04:36:32;;;;;;;8.50;3.15;;;;;;;;;;4991874;28;20038;-69
2022/07/15 04:38:58;;;;;;;13.32;3.63;;;;;;;;;;4991850;28;20028;-69
2022/07/15 04:41:24;;;;;;;11.05;3.00;;;;;;;;;;4992235;28;20038;-70
2022/07/15 04:43:50;;;;;;;5.88;2.00;;;;;;;;;;4991606;28;20026;-72
2022/07/15 04:46:16;;;;;;;6.45;2.08;;;;;;;;;;4982762;28;20370;-69
2022/07/15 04:51:32;;;;;;;5.78;2.10;;;;;;;;;;4953478;28;20042;-70
2022/07/15 04:53:59;;;;;;;6.53;2.08;;;;;;;;;;4963448;28;20177;-69
2022/07/15 04:56:25;;;;;;;5.65;2.00;;;;;;;;;;4966551;28;20447;-69
2022/07/15 04:59:01;;;;;;;10.00;2.58;;;;;;;;;;4963155;28;20046;-70
2022/07/15 05:01:27;;;;;;;8.18;2.30;;;;;;;;;;4961521;28;20082;-70
2022/07/15 05:03:54;;;;;;;4.93;2.00;;;;;;;;;;4986176;28;20597;-70
2022/07/15 05:06:21;;;;;;;9.25;1.98;;;;;;;;;;4973567;28;20039;-70
2022/07/15 05:09:19;;;;;;;7.93;1.98;;;;;;;;;;4974157;28;20031;-70
2022/07/15 05:12:06;;;;;;;5.20;2.10;;;;;;;;;;4913595;29;20476;-70
2022/07/15 05:14:43;;;;;;;5.32;2.35;;;;;;;;;;4899724;29;20153;-69
2022/07/15 05:17:10;;;;;;;7.43;2.35;;;;;;;;;;4915639;29;20101;-71
2022/07/15 05:19:37;;;;;;;11.38;2.40;;;;;;;;;;4899749;29;20040;-69
2022/07/15 05:22:04;;;;;;;7.75;1.92;;;;;;;;;;4931646;29;20071;-68
2022/07/15 05:24:31;;;;;;;8.77;2.38;;;;;;;;;;4931434;29;20032;-70
2022/07/15 05:27:02;;;;;;;7.03;2.35;;;;;;;;;;4915651;29;20075;-70
2022/07/15 05:29:31;;;;;;;9.93;2.20;;;;;;;;;;4914625;29;20048;-69
2022/07/15 05:31:56;;;;;;;12.90;3.53;;;;;;;;;;4880899;29;20091;-70
2022/07/15 05:34:22;;;;;;;8.45;2.40;;;;;;;;;;4896556;29;20512;-69
2022/07/15 05:36:50;;;;;;;5.10;2.35;;;;;;;;;;4880640;29;20127;-68
2022/07/15 05:39:18;;;;;;;4.22;1.92;;;;;;;;;;4912293;29;20048;-69
2022/07/15 05:41:43;;;;;;;6.22;1.90;;;;;;;;;;4915067;29;20072;-69
2022/07/15 05:44:10;;;;;;;5.03;1.80;;;;;;;;;;4954412;29;20061;-69
2022/07/15 05:46:42;;;;;;;8.48;1.77;;;;;;;;;;4954276;29;20082;-70
2022/07/15 05:49:10;;;;;;;5.05;2.05;;;;;;;;;;4954230;28;20043;-68
2022/07/15 05:51:37;;;;;;;7.97;2.55;;;;;;;;;;4970444;28;20114;-69
2022/07/15 05:54:03;;;;;;;6.95;1.85;;;;;;;;;;4953707;28;20040;-68
2022/07/15 05:56:31;;;;;;;7.50;1.88;;;;;;;;;;4954067;28;20486;-70
2022/07/15 05:58:57;;;;;;;8.52;2.28;;;;;;;;;;4953852;28;20088;-69
2022/07/15 06:01:28;;;;;;;6.30;2.15;;;;;;;;;;4971329;28;20030;-72
2022/07/15 06:03:54;;;;;;;3.60;2.00;;;;;;;;;;4972872;28;20030;-70
2022/07/15 06:06:21;;;;;;;11.25;2.88;;;;;;;;;;4965789;28;20027;-73
2022/07/15 06:12:29;;;;;;;11.00;2.80;;;;;;;;;;4955145;28;20073;-73
2022/07/15 06:14:55;;;;;;;7.10;2.25;;;;;;;;;;4954727;28;20039;-72
2022/07/15 06:17:21;;;;;;;5.30;2.63;;;;;;;;;;4952324;28;20074;-70
2022/07/15 06:19:47;;;;;;;5.57;1.85;;;;;;;;;;4952865;28;20035;-70
2022/07/15 06:22:14;;;;;;;5.25;1.70;;;;;;;;;;4953767;28;20027;-69
2022/07/15 06:24:40;;;;;;;5.50;2.47;;;;;;;;;;4954939;28;20402;-70
2022/07/15 06:27:06;;;;;;;4.20;2.20;;;;;;;;;;4954895;28;20031;-71
2022/07/15 06:29:32;;;;;;;6.72;2.00;;;;;;;;;;4953831;28;20041;-70
2022/07/15 06:31:58;;;;;;;6.70;2.03;;;;;;;;;;4961646;28;20027;-70
2022/07/15 06:34:24;;;;;;;7.15;1.88;;;;;;;;;;4987297;28;20083;-70
2022/07/15 06:36:50;;;;;;;7.97;2.10;;;;;;;;;;4973775;28;20484;-70
2022/07/15 06:39:17;;;;;;;6.65;1.85;;;;;;;;;;4974332;28;20031;-70
2022/07/15 06:41:43;;;;;;;16.42;2.50;;;;;;;;;;4973191;28;20039;-70
2022/07/15 06:44:11;;;;;;;8.13;2.25;;;;;;;;;;4972927;28;20126;-70
2022/07/15 06:46:52;;;;;;;4.65;1.83;;;;;;;;;;4988807;28;20181;-71
2022/07/15 06:49:18;;;;;;;7.50;2.55;;;;;;;;;;4972577;28;20037;-71
2022/07/15 06:51:44;;;;;;;7.07;2.00;;;;;;;;;;4972419;28;20110;-70
2022/07/15 06:54:11;;;;;;;9.32;2.30;;;;;;;;;;4973734;28;20121;-69
2022/07/15 06:56:39;;;;;;;8.75;2.40;;;;;;;;;;4971828;28;20043;-70
2022/07/15 06:59:05;;;;;;;6.20;2.40;;;;;;;;;;4973740;28;20048;-71
2022/07/15 07:01:32;;;;;;;5.07;2.00;;;;;;;;;;4972459;28;20035;-71
2022/07/15 07:03:58;;;;;;;2.95;1.52;;;;;;;;;;4972928;28;20051;-70
2022/07/15 07:06:26;;;;;;;6.78;1.70;;;;;;;;;;4972622;28;20030;-70
2022/07/15 07:08:52;;;;;;;6.53;1.90;;;;;;;;;;4973739;28;20035;-72
2022/07/15 07:11:19;;;;;;;4.82;1.73;;;;;;;;;;4973498;28;20058;-71
2022/07/15 07:13:46;;;;;;;6.97;1.75;;;;;;;;;;4973329;28;20477;-71
2022/07/15 07:16:12;;;;;;;5.70;1.90;;;;;;;;;;4973203;28;20027;-69
2022/07/15 07:18:38;;;;;;;6.53;1.95;;;;;;;;;;4973399;28;20077;-70
2022/07/15 07:21:04;;;;;;;7.78;1.75;;;;;;;;;;4973591;28;20023;-70
2022/07/15 07:23:31;;;;;;;4.15;1.90;;;;;;;;;;4973447;28;20035;-69
2022/07/15 07:25:57;;;;;;;6.32;2.47;;;;;;;;;;4988445;28;20462;-69
2022/07/15 07:28:24;;;;;;;5.57;2.08;;;;;;;;;;4973650;28;20117;-69
2022/07/15 07:30:52;;;;;;;5.18;1.90;;;;;;;;;;4973680;28;20054;-72
2022/07/15 07:33:18;;;;;;;4.22;1.80;;;;;;;;;;4977748;28;20177;-69
2022/07/15 07:35:44;;;;;;;9.13;1.92;;;;;;;;;;4977727;28;20158;-71
2022/07/15 07:38:11;;;;;;;8.10;2.03;;;;;;;;;;4977790;28;20125;-70
2022/07/15 07:40:37;;;;;;;7.20;2.00;;;;;;;;;;4976603;28;20026;-75
2022/07/15 07:43:03;;;;;;;6.38;1.77;;;;;;;;;;4977664;28;20031;-74
2022/07/15 07:45:29;;;;;;;2.88;1.60;;;;;;;;;;4977501;28;20023;-71
2022/07/15 07:47:55;;;;;;;4.97;1.83;;;;;;;;;;4977511;28;20052;-70
2022/07/15 07:50:22;;;;;;;5.57;2.28;;;;;;;;;;4978936;28;20029;-71
2022/07/15 07:52:47;;;;;;;5.75;1.88;;;;;;;;;;4978980;28;20146;-70
2022/07/15 07:55:14;;;;;;;11.05;1.92;;;;;;;;;;4977132;28;20050;-72
2022/07/15 07:57:53;;;;;;;7.80;2.40;;;;;;;;;;4976996;28;20452;-70
2022/07/15 08:00:21;;;;;;;3.28;1.45;;;;;;;;;;4977426;28;20114;-70
2022/07/15 08:02:47;;;;;;;4.75;1.70;;;;;;;;;;4977254;28;20027;-70
2022/07/15 08:05:15;;;;;;;6.90;2.13;;;;;;;;;;4977091;28;20042;-71
2022/07/15 08:07:41;;;;;;;8.30;2.00;;;;;;;;;;4977017;28;20031;-70
2022/07/15 08:10:08;;;;;;;5.22;1.58;;;;;;;;;;4977038;28;20038;-71
2022/07/15 08:12:36;;;;;;;4.35;1.73;;;;;;;;;;4977050;28;20065;-70
2022/07/15 08:15:02;;;;;;;2.67;1.40;;;;;;;;;;4977121;28;20058;-71
2022/07/15 08:17:28;;;;;;;4.20;1.70;;;;;;;;;;4976931;28;20027;-70
2022/07/15 08:19:54;;;;;;;7.65;1.52;;;;;;;;;;4976718;28;20386;-70
2022/07/15 08:22:20;;;;;;;4.85;1.92;;;;;;;;;;4975679;28;20058;-71
2022/07/15 08:24:46;;;;;;;4.53;1.90;;;;;;;;;;4976791;28;20034;-72
2022/07/15 08:27:12;;;;;;;3.55;1.85;;;;;;;;;;4976866;28;20035;-71
2022/07/15 08:29:38;;;;;;;4.15;1.58;;;;;;;;;;4976191;28;20045;-69
2022/07/15 08:32:04;;;;;;;5.05;1.70;;;;;;;;;;4976441;28;20125;-70
2022/07/15 08:34:30;;;;;;;6.57;2.28;;;;;;;;;;4976290;28;20034;-71
2022/07/15 08:36:56;;;;;;;3.00;1.60;;;;;;;;;;4976570;28;20027;-70
2022/07/15 08:39:23;;;;;;;4.93;1.67;;;;;;;;;;4976379;28;20031;-71
2022/07/15 08:41:50;;;;;;;6.57;2.00;;;;;;;;;;4976328;28;20023;-71
2022/07/15 08:44:16;;;;;;;7.70;1.42;;;;;;;;;;4975359;28;20392;-70
2022/07/15 08:46:46;;;;;;;2.38;1.40;;;;;;;;;;4976295;28;20015;-72
2022/07/15 08:49:17;;;;;;;6.57;1.92;;;;;;;;;;4976079;28;20346;-71
2022/07/15 08:51:45;;;;;;;5.40;1.48;;;;;;;;;;4976058;28;20035;-70
2022/07/15 08:54:12;;;;;;;6.25;1.63;;;;;;;;;;4976033;28;20027;-69
2022/07/15 08:56:38;;;;;;;2.28;1.55;;;;;;;;;;4975743;28;20038;-69
2022/07/15 08:59:06;;;;;;;4.07;1.30;;;;;;;;;;4976254;28;20086;-71
2022/07/15 09:01:40;;;;;;;4.38;1.42;;;;;;;;;;4976301;28;20057;-69
2022/07/15 09:04:06;;;;;;;14.32;3.05;;;;;;;;;;4975771;28;20522;-71
2022/07/15 09:06:44;;;;;;;1.92;1.25;;;;;;;;;;4976118;28;20054;-71
2022/07/15 09:09:32;;;;;;;4.07;1.40;;;;;;;;;;4975997;28;20038;-69
2022/07/15 09:12:05;;;;;;;3.63;1.30;;;;;;;;;;4975551;28;20065;-70
2022/07/15 09:14:33;;;;;;;4.10;1.70;;;;;;;;;;4975758;28;20042;-70
2022/07/15 09:17:23;;;;;;;3.00;1.40;;;;;;;;;;4975848;28;20470;-70
2022/07/15 09:19:59;;;;;;;3.85;1.27;;;;;;;;;;4968523;28;20046;-70
2022/07/15 09:22:26;;;;;;;4.50;1.15;;;;;;;;;;4975801;28;20027;-70
2022/07/15 09:25:05;;;;;;;2.58;1.40;;;;;;;;;;4975386;28;20023;-70
2022/07/15 09:27:50;;;;;;;6.78;1.40;;;;;;;;;;4974313;28;20035;-74
2022/07/15 09:33:36;;;;;;;3.90;1.25;;;;;;;;;;4975438;28;20046;-69
2022/07/15 09:36:05;;;;;;;3.10;1.17;;;;;;;;;;4975850;28;20077;-69
2022/07/15 09:38:49;;;;;;;2.20;1.20;;;;;;;;;;4974134;28;20449;-71
2022/07/15 09:41:26;;;;;;;3.28;1.52;;;;;;;;;;4975428;28;20125;-70
2022/07/15 09:44:01;;;;;;;3.95;1.42;;;;;;;;;;4976975;28;20066;-71
2022/07/15 09:46:40;;;;;;;4.22;1.45;;;;;;;;;;4978401;28;20041;-71
2022/07/15 09:49:07;;;;;;;7.60;1.77;;;;;;;;;;4975399;28;20981;-70
2022/07/15 09:51:46;;;;;;;4.05;1.38;;;;;;;;;;4975422;28;20069;-70
2022/07/15 09:54:12;;;;;;;6.60;1.83;;;;;;;;;;4975487;28;20089;-70
2022/07/15 09:56:38;;;;;;;2.85;1.23;;;;;;;;;;4975389;28;20497;-72
2022/07/15 09:59:04;;;;;;;2.58;1.20;;;;;;;;;;4975317;28;20122;-69
2022/07/15 10:01:30;;;;;;;1.98;1.15;;;;;;;;;;4975313;28;20114;-70
2022/07/15 10:03:57;;;;;;;1.85;1.17;;;;;;;;;;4975075;28;20045;-70
2022/07/15 10:06:26;;;;;;;3.70;1.60;;;;;;;;;;4975375;28;20410;-71
2022/07/15 10:08:54;;;;;;;2.63;1.88;;;;;;;;;;4975156;28;20394;-70
2022/07/15 10:11:20;;;;;;;2.28;1.20;;;;;;;;;;4974748;28;20027;-70
2022/07/15 10:14:15;;;;;;;6.07;1.65;;;;;;;;;;4974978;28;20035;-70
2022/07/15 10:16:48;;;;;;;3.22;1.20;;;;;;;;;;4974961;28;20043;-72
2022/07/15 10:19:38;;;;;;;2.88;1.27;;;;;;;;;;4974840;28;20155;-71
2022/07/15 10:22:13;;;;;;;2.75;1.30;;;;;;;;;;4974775;28;20062;-70
2022/07/15 10:25:06;;;;;;;2.95;1.38;;;;;;;;;;4975850;28;20134;-72
2022/07/15 10:27:52;;;;;;;1.65;1.10;;;;;;;;;;4974913;28;20073;-70
2022/07/15 10:30:23;;;;;;;2.47;1.23;;;;;;;;;;4974783;28;20035;-71
2022/07/15 10:33:13;;;;;;;1.35;1.10;;;;;;;;;;4974581;28;20090;-70
2022/07/15 10:35:49;;;;;;;5.32;1.50;;;;;;;;;;4974011;28;20066;-69
2022/07/15 10:38:25;;;;;;;2.95;1.50;;;;;;;;;;4974398;28;20502;-71
2022/07/15 10:41:10;;;;;;;2.13;1.30;;;;;;;;;;4975814;28;20117;-70
2022/07/15 10:43:46;;;;;;;3.15;1.40;;;;;;;;;;4974504;28;20533;-69
2022/07/15 10:46:19;;;;;;;4.28;1.45;;;;;;;;;;4974358;28;20049;-70
2022/07/15 10:48:54;;;;;;;1.70;1.20;;;;;;;;;;4974525;28;20035;-75
2022/07/15 10:51:35;;;;;;;6.15;1.70;;;;;;;;;;4974476;28;20393;-69
2022/07/15 10:54:07;;;;;;;1.85;1.10;;;;;;;;;;4973711;28;20054;-67
2022/07/15 10:56:51;;;;;;;2.90;1.15;;;;;;;;;;4973918;28;20051;-70
2022/07/15 10:59:23;;;;;;;3.17;1.50;;;;;;;;;;4973869;28;20113;-70
2022/07/15 11:02:00;;;;;;;5.28;1.50;;;;;;;;;;4973934;28;20074;-71
2022/07/15 11:04:29;;;;;;;2.65;1.67;;;;;;;;;;4974002;28;20031;-69
2022/07/15 11:07:07;;;;;;;4.13;1.23;;;;;;;;;;4972335;28;20030;-70
2022/07/15 11:09:51;;;;;;;4.03;1.30;;;;;;;;;;4973884;28;20066;-71
2022/07/15 11:12:43;;;;;;;4.25;1.30;;;;;;;;;;4974047;28;20034;-73
2022/07/15 11:15:16;;;;;;;6.97;1.25;;;;;;;;;;4965877;28;20039;-72
2022/07/15 11:17:47;;;;;;;3.20;1.25;;;;;;;;;;4974140;28;20041;-73
2022/07/15 11:20:17;;;;;;;2.13;1.38;;;;;;;;;;4974038;28;20455;-72
2022/07/15 11:22:48;;;;;;;4.38;1.73;;;;;;;;;;4973323;28;20039;-74
2022/07/15 11:25:17;;;;;;;6.20;1.27;;;;;;;;;;4973121;28;20057;-71
2022/07/15 11:28:00;;;;;;;6.18;1.20;;;;;;;;;;4973479;28;20047;-69
2022/07/15 11:30:27;;;;;;;6.05;1.65;;;;;;;;;;4973884;28;20614;-68
2022/07/15 11:32:58;;;;;;;2.90;1.48;;;;;;;;;;4974076;28;20023;-70
2022/07/15 11:35:25;;;;;;;2.35;1.30;;;;;;;;;;4973867;28;20498;-73
2022/07/15 11:37:58;;;;;;;1.83;1.00;;;;;;;;;;4973537;28;20142;-72
2022/07/15 11:46:01;;;;;;;3.72;1.20;;;;;;;;;;4973094;28;20035;-70
2022/07/15 11:48:27;;;;;;;3.35;1.20;;;;;;;;;;4973706;28;20105;-69
2022/07/15 11:50:55;;;;;;;3.30;1.27;;;;;;;;;;4969033;28;20371;-69
2022/07/15 11:53:23;;;;;;;3.33;1.58;;;;;;;;;;4971000;28;20097;-70
2022/07/15 11:55:51;;;;;;;5.25;1.30;;;;;;;;;;4973237;28;20473;-70
2022/07/15 11:58:36;;;;;;;1.30;1.00;;;;;;;;;;4972730;28;20054;-70
2022/07/15 12:01:08;;;;;;;2.80;1.05;;;;;;;;;;4966383;28;20030;-70
2022/07/15 12:03:49;;;;;;;3.78;1.30;;;;;;;;;;4969704;28;20031;-71
2022/07/15 12:06:23;;;;;;;2.63;1.10;;;;;;;;;;4972883;28;20210;-71
2022/07/15 12:08:52;;;;;;;2.75;1.10;;;;;;;;;;4973236;28;20482;-70
2022/07/15 12:11:35;;;;;;;5.32;1.80;;;;;;;;;;4972657;28;20074;-71
2022/07/15 12:14:04;;;;;;;4.80;1.40;;;;;;;;;;4969736;28;20031;-71
2022/07/15 12:16:35;;;;;;;4.75;1.27;;;;;;;;;;4954104;28;20392;-70
2022/07/15 12:19:06;;;;;;;2.45;1.10;;;;;;;;;;4967603;28;20085;-71
2022/07/15 12:21:32;;;;;;;4.32;1.40;;;;;;;;;;4966632;28;20042;-71
2022/07/15 12:24:20;;;;;;;4.55;1.35;;;;;;;;;;4971279;28;20023;-72
2022/07/15 12:26:54;;;;;;;4.43;1.73;;;;;;;;;;4976062;28;20046;-69
2022/07/15 12:29:26;;;;;;;4.75;1.27;;;;;;;;;;4976662;28;20038;-71
2022/07/15 12:31:56;;;;;;;4.80;1.30;;;;;;;;;;4976198;28;20035;-72
2022/07/15 12:34:42;;;;;;;2.47;1.42;;;;;;;;;;4976216;28;20026;-69
2022/07/15 12:37:08;;;;;;;3.60;1.52;;;;;;;;;;4975837;28;20114;-70
2022/07/15 12:39:52;;;;;;;2.88;1.15;;;;;;;;;;4968888;28;20114;-69
2022/07/15 12:42:18;;;;;;;2.17;1.10;;;;;;;;;;4973760;28;20043;-71
2022/07/15 12:44:44;;;;;;;1.73;1.20;;;;;;;;;;4973805;28;20023;-70
2022/07/15 12:47:10;;;;;;;2.78;1.00;;;;;;;;;;4974145;28;20371;-70
2022/07/15 12:49:46;;;;;;;2.92;1.20;;;;;;;;;;4976208;28;20027;-71
2022/07/15 12:52:14;;;;;;;3.33;1.23;;;;;;;;;;4975614;28;20054;-70
2022/07/15 12:54:40;;;;;;;7.32;1.63;;;;;;;;;;4970823;28;20066;-71
2022/07/15 12:57:17;;;;;;;1.85;1.20;;;;;;;;;;4974507;28;20049;-71
2022/07/15 13:00:17;;;;;;;1.70;1.30;;;;;;;;;;4960329;28;20035;-70
2022/07/15 13:02:54;;;;;;;3.65;1.40;;;;;;;;;;4942202;28;20074;-69
2022/07/15 13:05:21;;;;;;;1.98;1.50;;;;;;;;;;4955989;28;20121;-71
2022/07/15 13:07:48;;;;;;;3.72;1.73;;;;;;;;;;4956436;28;20098;-72
2022/07/15 13:10:14;;;;;;;2.00;1.30;;;;;;;;;;4956156;28;20047;-69
2022/07/15 13:12:39;;;;;;;3.10;1.40;;;;;;;;;;4956367;28;20047;-70
2022/07/15 13:15:06;;;;;;;2.53;1.10;;;;;;;;;;4956497;28;20077;-70
2022/07/15 13:17:32;;;;;;;2.58;1.10;;;;;;;;;;4958114;28;20059;-70
2022/07/15 13:19:58;;;;;;;2.38;1.40;;;;;;;;;;4972203;28;20430;-70
2022/07/15 13:22:24;;;;;;;4.75;1.30;;;;;;;;;;4972230;28;20102;-70
2022/07/15 13:24:50;;;;;;;3.22;1.20;;;;;;;;;;4975160;28;20062;-71
2022/07/15 13:27:16;;;;;;;4.28;1.27;;;;;;;;;;4981322;28;20055;-71
2022/07/15 13:29:42;;;;;;;2.63;1.20;;;;;;;;;;4975152;28;20027;-69
2022/07/15 13:32:07;;;;;;;5.85;1.10;;;;;;;;;;4957042;28;20047;-70
2022/07/15 13:34:33;;;;;;;4.93;1.30;;;;;;;;;;4956213;28;20039;-69
2022/07/15 13:36:59;;;;;;;4.03;1.17;;;;;;;;;;4964961;28;20114;-69
2022/07/15 13:39:25;;;;;;;2.70;1.20;;;;;;;;;;4975292;28;20034;-69
2022/07/15 13:41:51;;;;;;;2.60;1.20;;;;;;;;;;4975432;28;20026;-69
2022/07/15 13:44:17;;;;;;;3.22;1.30;;;;;;;;;;4975292;28;20035;-68
2022/07/15 13:46:42;;;;;;;1.90;1.20;;;;;;;;;;4975257;28;20034;-71
2022/07/15 13:49:08;;;;;;;2.92;1.10;;;;;;;;;;4975839;28;20050;-69
2022/07/15 13:51:36;;;;;;;1.58;1.25;;;;;;;;;;4958683;28;20037;-70
2022/07/15 13:54:02;;;;;;;2.90;1.00;;;;;;;;;;4955356;28;20055;-70
2022/07/15 13:56:28;;;;;;;3.17;1.13;;;;;;;;;;4954958;28;20513;-70
2022/07/15 13:58:57;;;;;;;3.13;1.20;;;;;;;;;;4955500;28;20043;-69
2022/07/15 14:01:24;;;;;;;3.22;1.08;;;;;;;;;;4955914;28;20110;-70
2022/07/15 14:03:50;;;;;;;3.85;1.30;;;;;;;;;;4954646;28;20047;-69
2022/07/15 14:06:16;;;;;;;2.67;1.25;;;;;;;;;;4974833;28;20027;-68
2022/07/15 14:08:41;;;;;;;3.75;1.45;;;;;;;;;;4958801;28;20046;-69
2022/07/15 14:11:07;;;;;;;5.85;1.50;;;;;;;;;;4963811;28;20038;-69
2022/07/15 14:13:33;;;;;;;2.20;1.17;;;;;;;;;;4974642;28;20034;-70
2022/07/15 14:15:59;;;;;;;3.20;1.30;;;;;;;;;;4974755;28;20078;-71
2022/07/15 14:18:43;;;;;;;1.98;1.20;;;;;;;;;;4975114;28;20097;-72
2022/07/15 14:21:14;;;;;;;2.75;1.20;;;;;;;;;;4955186;28;20051;-71
2022/07/15 14:23:40;;;;;;;4.18;1.13;;;;;;;;;;4955318;28;20470;-70
2022/07/15 14:26:06;;;;;;;5.90;1.40;;;;;;;;;;4956790;28;20482;-70
2022/07/15 14:28:32;;;;;;;2.10;1.10;;;;;;;;;;4955787;28;20042;-72
2022/07/15 14:30:58;;;;;;;2.13;0.93;;;;;;;;;;4955223;28;20452;-70
2022/07/15 14:33:24;;;;;;;2.05;1.00;;;;;;;;;;4955144;28;20039;-71
2022/07/15 14:35:50;;;;;;;1.33;1.00;;;;;;;;;;4974039;28;20179;-70
2022/07/15 14:38:16;;;;;;;2.65;1.20;;;;;;;;;;4974356;28;20046;-70
2022/07/15 14:40:41;;;;;;;3.47;1.10;;;;;;;;;;4973921;28;20427;-70
2022/07/15 14:43:07;;;;;;;2.55;1.20;;;;;;;;;;4974430;28;20489;-69
2022/07/15 14:45:33;;;;;;;2.22;1.10;;;;;;;;;;4974168;28;20382;-69
2022/07/15 14:47:59;;;;;;;2.35;1.27;;;;;;;;;;4973704;28;20035;-68
2022/07/15 14:50:25;;;;;;;1.70;1.15;;;;;;;;;;4974022;28;20053;-70
2022/07/15 14:52:51;;;;;;;6.63;1.42;;;;;;;;;;4973875;28;20049;-69
2022/07/15 14:55:17;;;;;;;3.88;1.25;;;;;;;;;;4973846;28;20462;-70
2022/07/15 14:57:43;;;;;;;1.67;1.20;;;;;;;;;;4973525;28;20046;-70
2022/07/15 15:00:09;;;;;;;4.28;1.00;;;;;;;;;;4973154;28;20478;-70
2022/07/15 15:02:35;;;;;;;4.18;1.33;;;;;;;;;;4973859;28;20105;-70
2022/07/15 15:05:01;;;;;;;1.85;1.13;;;;;;;;;;4973819;28;20106;-69
2022/07/15 15:07:27;;;;;;;2.35;1.13;;;;;;;;;;4973884;28;20125;-72